Time;durP1;ratioP1;P1;durP2;ratioP2;P2;SDS_P1;SDS_P2;PMS_P1;PMS_P2;Temp;Humidity;BMP_temperature;BMP_pressure;BME280_temperature;BME280_humidity;BME280_pressure;Samples;Min_cycle;Max_cycle;Signal;HPM_P1;HPM_P2
2021/12/22 00:40:17;;;;;;;21.08;13.43;;;-1.00;99.90;;;;;;5011629;28;20222;-88
2021/12/22 01:12:19;;;;;;;22.58;14.13;;;-1.40;99.90;;;;;;4879039;29;20314;-89
2021/12/22 01:28:30;;;;;;;21.58;14.48;;;-1.10;99.90;;;;;;4970710;28;20213;-90
2021/12/22 01:32:00;;;;;;;;;;;;;;;;;;;;;
2021/12/22 01:34:59;;;;;;;22.10;13.43;;;-1.40;99.90;;;;;;4935519;29;20670;-89
2021/12/22 01:38:08;;;;;;;21.75;13.35;;;-1.40;99.90;;;;;;4973063;29;20618;-90
2021/12/22 01:45:02;;;;;;;18.98;13.02;;;-1.50;99.90;;;;;;4963692;29;20214;-89
2021/12/22 02:01:00;;;;;;;21.95;12.70;;;-1.40;99.90;;;;;;4960798;28;20244;-87
2021/12/22 02:17:28;;;;;;;20.48;12.77;;;-1.30;99.90;;;;;;4939506;29;20237;-89
2021/12/22 02:20:15;;;;;;;19.35;12.40;;;-1.40;99.90;;;;;;4973059;28;20310;-90
2021/12/22 02:23:10;;;;;;;18.90;12.40;;;-1.30;99.90;;;;;;4965180;28;20241;-89
2021/12/22 02:26:19;;;;;;;19.35;13.10;;;-1.50;99.90;;;;;;4966367;29;20262;-89
2021/12/22 02:32:47;;;;;;;18.52;12.73;;;-1.70;99.90;;;;;;4960804;29;20226;-88
2021/12/22 02:35:55;;;;;;;21.98;13.50;;;-1.60;99.90;;;;;;4963782;29;20210;-88
2021/12/22 02:39:07;;;;;;;;;;;;;;;;;;;;;
2021/12/22 02:44:45;;;;;;;19.58;12.00;;;-1.70;99.90;;;;;;4971126;28;20206;-89
2021/12/22 02:50:54;;;;;;;23.13;14.90;;;-1.70;99.90;;;;;;4954362;28;20235;-90
2021/12/22 03:00:29;;;;;;;26.25;13.82;;;-1.70;99.90;;;;;;4939766;29;20222;-89
2021/12/22 03:03:47;;;;;;;22.77;14.48;;;-1.50;99.90;;;;;;4967797;29;20243;-89
2021/12/22 03:16:42;;;;;;;27.75;14.88;;;-1.60;99.90;;;;;;4980494;28;20202;-88
2021/12/22 03:22:42;;;;;;;22.05;14.70;;;-1.60;99.90;;;;;;4971284;28;20242;-89
2021/12/22 03:28:22;;;;;;;24.30;15.38;;;-1.70;99.90;;;;;;4956509;29;20214;-89
2021/12/22 03:31:10;;;;;;;22.83;13.93;;;-1.60;99.90;;;;;;4963472;28;20240;-89
2021/12/22 03:34:26;;;;;;;23.27;14.27;;;-1.70;99.90;;;;;;4965139;29;20292;-89
2021/12/22 03:37:31;;;;;;;20.45;13.27;;;-1.70;99.90;;;;;;4965872;29;20268;-89
2021/12/22 03:43:56;;;;;;;21.67;13.50;;;-1.60;99.90;;;;;;4977478;28;20206;-89
2021/12/22 04:05:50;;;;;;;21.98;12.43;;;-1.60;99.90;;;;;;4972876;28;20209;-87
2021/12/22 04:15:42;;;;;;;22.27;13.93;;;-1.90;99.90;;;;;;4946754;29;20265;-88
2021/12/22 04:21:51;;;;;;;24.67;14.05;;;-2.10;99.90;;;;;;4888726;29;20216;-88
2021/12/22 04:28:03;;;;;;;24.17;14.07;;;-1.90;99.90;;;;;;4918929;28;20269;-87
2021/12/22 04:30:40;;;;;;;22.08;14.48;;;-1.80;99.90;;;;;;4973497;28;20287;-89
2021/12/22 04:46:06;;;;;;;23.13;13.77;;;-2.10;99.90;;;;;;4891358;29;20216;-88
2021/12/22 04:49:12;;;;;;;23.00;14.25;;;-2.20;99.90;;;;;;4968503;28;20276;-87
2021/12/22 04:52:22;;;;;;;22.83;14.63;;;-2.10;99.90;;;;;;4963898;29;20213;-88
2021/12/22 04:55:24;;;;;;;23.83;15.50;;;-1.90;99.90;;;;;;4973120;29;20252;-88
2021/12/22 04:58:30;;;;;;;24.08;14.65;;;-2.00;99.90;;;;;;4960723;29;20213;-88
2021/12/22 05:04:05;;;;;;;19.45;14.52;;;-2.20;99.90;;;;;;4965923;28;20249;-87
2021/12/22 05:06:48;;;;;;;22.95;15.07;;;-1.70;99.90;;;;;;4965468;29;20207;-89
2021/12/22 05:09:15;;;;;;;24.23;15.65;;;-1.90;99.90;;;;;;5000259;23;20237;-83
2021/12/22 05:11:43;;;;;;;23.30;13.38;;;-2.00;99.90;;;;;;4982802;28;20198;-82
2021/12/22 05:14:10;;;;;;;26.30;15.52;;;-2.00;99.90;;;;;;4980979;28;20303;-83
2021/12/22 05:16:44;;;;;;;25.77;14.77;;;-1.90;99.90;;;;;;4980555;28;20216;-82
2021/12/22 05:19:14;;;;;;;27.75;14.93;;;-2.10;99.90;;;;;;4979781;28;20264;-82
2021/12/22 05:21:41;;;;;;;22.40;14.25;;;-1.90;99.90;;;;;;4980647;28;20205;-82
2021/12/22 05:24:09;;;;;;;26.60;14.30;;;-1.90;99.90;;;;;;4979935;28;20214;-83
2021/12/22 05:26:36;;;;;;;23.58;14.60;;;-2.00;99.90;;;;;;4980094;28;20207;-83
2021/12/22 05:29:04;;;;;;;23.35;14.75;;;-2.30;99.90;;;;;;4982992;28;20276;-83
2021/12/22 05:31:31;;;;;;;26.42;15.80;;;-2.20;99.90;;;;;;4987099;28;20702;-84
2021/12/22 05:33:58;;;;;;;26.27;14.55;;;-2.00;99.90;;;;;;4979790;28;20212;-83
2021/12/22 05:36:25;;;;;;;25.58;16.02;;;-1.90;99.90;;;;;;4980367;28;20209;-83
2021/12/22 05:38:51;;;;;;;25.77;14.98;;;-1.70;99.90;;;;;;4980584;28;20303;-83
2021/12/22 05:41:18;;;;;;;23.77;15.45;;;-1.90;99.90;;;;;;4980174;28;20272;-83
2021/12/22 05:43:45;;;;;;;32.03;16.67;;;-2.10;99.90;;;;;;4987735;28;20698;-82
2021/12/22 05:46:14;;;;;;;23.45;14.27;;;-2.20;99.90;;;;;;4988810;28;20299;-83
2021/12/22 05:48:41;;;;;;;24.15;15.80;;;-2.10;99.90;;;;;;4981034;28;20330;-83
2021/12/22 05:51:08;;;;;;;25.58;15.40;;;-2.30;99.90;;;;;;4980928;28;20239;-83
2021/12/22 05:53:35;;;;;;;21.80;15.05;;;-2.20;99.90;;;;;;4980265;28;20228;-84
2021/12/22 05:56:01;;;;;;;23.60;15.00;;;-2.20;99.90;;;;;;4985817;28;20281;-82
2021/12/22 05:58:28;;;;;;;25.63;14.77;;;-2.20;99.90;;;;;;4986561;28;20276;-82
2021/12/22 06:00:56;;;;;;;23.13;13.55;;;-2.20;99.90;;;;;;4987595;28;20658;-83
2021/12/22 06:03:24;;;;;;;27.90;16.00;;;-2.10;99.90;;;;;;4980629;28;20248;-83
2021/12/22 06:05:51;;;;;;;22.50;14.55;;;-2.30;99.90;;;;;;4982772;28;20278;-83
2021/12/22 06:08:17;;;;;;;22.00;14.50;;;-2.10;99.90;;;;;;4980104;28;20215;-83
2021/12/22 06:10:44;;;;;;;27.67;15.88;;;-2.00;99.90;;;;;;4981521;28;20237;-83
2021/12/22 06:13:12;;;;;;;29.05;15.40;;;-2.00;99.90;;;;;;4981657;28;20227;-83
2021/12/22 06:15:40;;;;;;;20.38;13.63;;;-2.00;99.90;;;;;;4981271;28;20227;-83
2021/12/22 06:18:07;;;;;;;26.60;15.32;;;-2.30;99.90;;;;;;4980438;28;20223;-83
2021/12/22 06:20:36;;;;;;;24.55;15.27;;;-2.20;99.90;;;;;;4980415;28;20729;-83
2021/12/22 06:23:04;;;;;;;24.15;14.63;;;-2.30;99.90;;;;;;4981217;28;20570;-83
2021/12/22 06:25:31;;;;;;;27.42;15.90;;;-2.20;99.90;;;;;;4991958;28;20241;-83
2021/12/22 06:27:58;;;;;;;22.10;14.25;;;-2.40;99.90;;;;;;4990906;28;20246;-83
2021/12/22 06:30:25;;;;;;;23.73;14.05;;;-2.30;99.90;;;;;;4982893;28;20239;-83
2021/12/22 06:32:52;;;;;;;23.40;14.10;;;-2.30;99.90;;;;;;4982676;28;20212;-83
2021/12/22 06:35:19;;;;;;;27.80;16.55;;;-2.10;99.90;;;;;;4983735;28;20651;-83
2021/12/22 06:37:48;;;;;;;27.00;16.40;;;-2.10;99.90;;;;;;4984168;28;20308;-83
2021/12/22 06:40:16;;;;;;;29.55;15.70;;;-2.20;99.90;;;;;;4983508;28;20232;-83
2021/12/22 06:42:43;;;;;;;24.95;14.40;;;-2.40;99.90;;;;;;4983697;28;20774;-84
2021/12/22 06:45:12;;;;;;;25.17;14.82;;;-2.40;99.90;;;;;;4983449;28;20210;-83
2021/12/22 06:47:39;;;;;;;26.80;16.23;;;-2.20;99.90;;;;;;4987680;28;20273;-82
2021/12/22 06:50:07;;;;;;;22.10;14.50;;;-2.30;99.90;;;;;;4986307;28;20550;-82
2021/12/22 06:52:35;;;;;;;26.88;15.30;;;-2.30;99.90;;;;;;4984718;28;20211;-83
2021/12/22 06:55:03;;;;;;;20.02;12.50;;;-2.40;99.90;;;;;;4983415;28;20320;-82
2021/12/22 06:57:32;;;;;;;22.20;14.68;;;-2.20;99.90;;;;;;4984900;28;20209;-82
2021/12/22 07:00:00;;;;;;;25.35;15.13;;;-2.10;99.90;;;;;;4984443;28;20234;-83
2021/12/22 07:02:26;;;;;;;23.27;14.15;;;-2.40;99.90;;;;;;4983703;28;20226;-83
2021/12/22 07:04:53;;;;;;;30.77;16.13;;;-2.40;99.90;;;;;;4989884;28;20258;-84
2021/12/22 07:07:20;;;;;;;25.58;15.60;;;-2.40;99.90;;;;;;4983912;28;20265;-82
2021/12/22 07:09:47;;;;;;;27.60;15.77;;;-2.30;99.90;;;;;;4982918;28;20400;-83
2021/12/22 07:12:15;;;;;;;28.42;15.68;;;-2.50;99.90;;;;;;4983011;28;20205;-83
2021/12/22 07:14:42;;;;;;;23.60;15.77;;;-2.20;99.90;;;;;;4984291;28;20245;-83
2021/12/22 07:17:09;;;;;;;28.55;15.90;;;-2.20;99.90;;;;;;4983924;28;20208;-83
2021/12/22 07:19:36;;;;;;;23.55;15.77;;;-2.20;99.90;;;;;;4983253;28;20235;-83
2021/12/22 07:22:04;;;;;;;28.85;16.77;;;-2.30;99.90;;;;;;4983367;28;20729;-82
2021/12/22 07:24:30;;;;;;;27.55;15.50;;;-2.40;99.90;;;;;;4983018;28;20315;-82
2021/12/22 07:26:57;;;;;;;26.10;16.70;;;-2.00;99.90;;;;;;4984230;28;20292;-82
2021/12/22 07:29:25;;;;;;;26.08;15.98;;;-2.10;99.90;;;;;;4983225;28;20661;-81
2021/12/22 07:31:52;;;;;;;25.92;16.02;;;-2.10;99.90;;;;;;4984246;28;20568;-84
2021/12/22 07:34:25;;;;;;;31.23;17.08;;;-2.00;99.90;;;;;;4983313;28;20300;-84
2021/12/22 07:37:00;;;;;;;26.50;16.73;;;-2.00;99.90;;;;;;4985654;28;20194;-84
2021/12/22 07:39:27;;;;;;;26.42;16.15;;;-2.00;99.90;;;;;;4995019;28;20245;-84
2021/12/22 07:41:54;;;;;;;30.15;18.33;;;-2.10;99.90;;;;;;4988359;28;20631;-82
2021/12/22 07:44:21;;;;;;;30.17;18.38;;;-1.90;99.90;;;;;;4983868;28;20311;-82
2021/12/22 07:46:49;;;;;;;25.52;17.45;;;-1.80;99.90;;;;;;4985902;28;20205;-82
2021/12/22 07:49:16;;;;;;;28.40;18.35;;;-1.70;99.90;;;;;;4983510;28;20257;-84
2021/12/22 07:51:43;;;;;;;25.85;16.75;;;-1.80;99.90;;;;;;4983120;28;20234;-84
2021/12/22 07:54:10;;;;;;;26.42;17.20;;;-1.60;99.90;;;;;;4982826;28;20297;-84
2021/12/22 07:56:37;;;;;;;23.27;16.40;;;-1.70;99.90;;;;;;4982561;28;20242;-82
2021/12/22 07:59:03;;;;;;;28.95;18.80;;;-1.80;99.90;;;;;;4982938;28;20209;-84
2021/12/22 08:01:32;;;;;;;30.40;16.98;;;-1.80;99.90;;;;;;4982954;28;20570;-82
2021/12/22 08:04:00;;;;;;;25.30;15.77;;;-1.70;99.90;;;;;;4982202;28;20562;-82
2021/12/22 08:06:27;;;;;;;25.73;16.15;;;-1.60;99.90;;;;;;4983418;28;20218;-82
2021/12/22 08:08:54;;;;;;;28.40;16.48;;;-1.50;99.90;;;;;;4982829;28;20207;-82
2021/12/22 08:11:21;;;;;;;29.73;17.00;;;-1.50;99.90;;;;;;4983166;28;20538;-83
2021/12/22 08:13:48;;;;;;;26.90;17.20;;;-1.70;99.90;;;;;;4983238;28;20264;-82
2021/12/22 08:16:15;;;;;;;31.92;19.10;;;-1.70;99.90;;;;;;4982181;28;20284;-83
2021/12/22 08:18:42;;;;;;;27.10;16.60;;;-1.80;99.90;;;;;;4981969;28;20624;-83
2021/12/22 08:21:10;;;;;;;28.50;17.02;;;-1.70;99.90;;;;;;4982493;28;20229;-83
2021/12/22 08:23:37;;;;;;;27.80;15.77;;;-1.90;99.90;;;;;;4983079;28;20316;-83
2021/12/22 08:26:04;;;;;;;29.00;17.80;;;-1.90;99.90;;;;;;4981875;28;20213;-83
2021/12/22 08:28:31;;;;;;;27.23;16.90;;;-2.00;99.90;;;;;;4982032;28;20210;-83
2021/12/22 08:30:58;;;;;;;28.15;17.25;;;-2.00;99.90;;;;;;4982399;28;20312;-84
2021/12/22 08:33:29;;;;;;;37.25;17.08;;;-1.50;99.90;;;;;;4981959;28;20255;-84
2021/12/22 08:38:51;;;;;;;32.83;16.13;;;-1.30;99.90;;;;;;4982832;28;20192;-84
2021/12/22 08:41:18;;;;;;;25.02;16.52;;;-1.40;99.90;;;;;;4983257;28;20194;-82
2021/12/22 08:43:45;;;;;;;30.20;16.25;;;-1.30;99.90;;;;;;4984768;28;20315;-81
2021/12/22 08:46:12;;;;;;;29.17;17.45;;;-1.30;99.90;;;;;;4983790;28;20590;-83
2021/12/22 08:48:39;;;;;;;35.95;17.77;;;-1.30;99.90;;;;;;4983137;28;20679;-84
2021/12/22 08:51:06;;;;;;;28.75;17.20;;;-1.40;99.90;;;;;;4982332;28;20289;-82
2021/12/22 08:53:33;;;;;;;28.70;18.27;;;-1.30;99.90;;;;;;4983202;28;20304;-82
2021/12/22 08:56:01;;;;;;;25.70;16.23;;;-1.30;99.90;;;;;;4982453;28;20240;-82
2021/12/22 08:58:28;;;;;;;32.70;18.80;;;-1.40;99.90;;;;;;4984340;28;20228;-82
2021/12/22 09:00:55;;;;;;;29.60;18.48;;;-1.10;99.90;;;;;;4981722;28;20312;-82
2021/12/22 09:03:21;;;;;;;31.52;17.30;;;-1.00;99.90;;;;;;4983131;28;20297;-82
2021/12/22 09:05:48;;;;;;;32.60;18.00;;;-1.00;99.90;;;;;;4983306;28;20635;-82
2021/12/22 09:08:15;;;;;;;31.20;19.35;;;-1.20;99.90;;;;;;4982361;28;20215;-82
2021/12/22 09:10:42;;;;;;;30.92;16.48;;;-1.00;99.90;;;;;;4983002;28;20242;-82
2021/12/22 09:13:12;;;;;;;31.33;19.30;;;-0.80;99.90;;;;;;4982491;28;20209;-82
2021/12/22 09:15:39;;;;;;;28.92;17.85;;;-0.90;99.90;;;;;;4982176;28;20214;-83
2021/12/22 09:18:06;;;;;;;29.88;18.90;;;-0.90;99.90;;;;;;4983049;28;20247;-82
2021/12/22 09:20:33;;;;;;;28.42;17.55;;;-0.80;99.90;;;;;;4982177;28;20229;-82
2021/12/22 09:23:00;;;;;;;29.77;18.08;;;-0.70;99.90;;;;;;4983237;28;20740;-82
2021/12/22 09:25:26;;;;;;;31.58;17.55;;;-0.70;99.90;;;;;;4984983;28;20280;-82
2021/12/22 09:27:53;;;;;;;33.78;19.08;;;-0.50;99.90;;;;;;4986136;28;20214;-82
2021/12/22 09:30:22;;;;;;;30.80;18.02;;;-0.40;99.90;;;;;;4984315;28;20341;-82
2021/12/22 09:32:49;;;;;;;25.80;16.30;;;-0.30;99.90;;;;;;4984248;28;20321;-82
2021/12/22 09:35:16;;;;;;;33.35;18.38;;;-0.40;99.90;;;;;;4995920;28;20231;-82
2021/12/22 09:37:43;;;;;;;28.63;17.20;;;-0.20;99.90;;;;;;4985774;28;20237;-82
2021/12/22 09:40:11;;;;;;;30.45;17.55;;;-0.20;99.90;;;;;;4982032;28;20230;-83
2021/12/22 09:42:39;;;;;;;30.75;17.80;;;0.00;99.90;;;;;;4982859;28;20219;-82
2021/12/22 09:45:07;;;;;;;29.90;17.60;;;-0.20;99.90;;;;;;4982951;28;20224;-82
2021/12/22 09:47:49;;;;;;;26.35;16.00;;;-0.10;99.90;;;;;;4982470;28;20244;-82
2021/12/22 09:50:34;;;;;;;29.83;15.55;;;-0.20;99.90;;;;;;4982275;28;20263;-82
2021/12/22 09:53:01;;;;;;;26.73;16.40;;;-0.10;99.90;;;;;;4983515;28;20191;-84
2021/12/22 09:55:28;;;;;;;25.48;16.70;;;0.10;99.90;;;;;;4989823;28;20214;-84
2021/12/22 09:57:56;;;;;;;25.90;16.40;;;0.30;99.90;;;;;;4983389;28;20215;-83
2021/12/22 10:00:23;;;;;;;25.98;15.90;;;0.20;99.90;;;;;;4983094;28;20343;-84
2021/12/22 10:02:51;;;;;;;25.42;15.52;;;0.40;99.90;;;;;;4983362;28;20215;-82
2021/12/22 10:05:18;;;;;;;25.33;15.13;;;0.50;99.90;;;;;;4982643;28;20236;-82
2021/12/22 10:07:45;;;;;;;27.27;15.18;;;0.60;99.90;;;;;;4986803;28;20280;-82
2021/12/22 10:10:15;;;;;;;29.02;17.58;;;0.70;99.90;;;;;;4986415;28;20714;-82
2021/12/22 10:12:44;;;;;;;23.40;14.48;;;0.70;99.90;;;;;;4985879;28;20247;-82
2021/12/22 10:15:12;;;;;;;28.83;16.08;;;0.80;99.90;;;;;;4986834;28;20255;-83
2021/12/22 10:17:41;;;;;;;23.90;15.05;;;0.80;99.90;;;;;;4985729;28;20272;-83
2021/12/22 10:20:12;;;;;;;24.23;14.90;;;0.80;99.90;;;;;;4986594;28;20256;-82
2021/12/22 10:22:41;;;;;;;22.05;14.30;;;0.90;99.90;;;;;;4986339;28;20705;-84
2021/12/22 10:25:12;;;;;;;31.55;15.10;;;0.90;99.90;;;;;;4988544;28;20232;-82
2021/12/22 10:27:45;;;;;;;24.90;14.48;;;0.80;99.90;;;;;;4988536;28;20200;-82
2021/12/22 10:30:24;;;;;;;21.52;13.32;;;1.10;99.90;;;;;;4988107;28;20723;-83
2021/12/22 10:33:03;;;;;;;26.65;14.80;;;0.90;99.90;;;;;;4986425;28;20204;-82
2021/12/22 10:35:33;;;;;;;24.23;14.02;;;1.10;99.90;;;;;;4985225;28;20293;-82
2021/12/22 10:38:02;;;;;;;25.02;14.15;;;1.00;99.90;;;;;;4985842;28;20204;-82
2021/12/22 10:40:31;;;;;;;23.25;14.75;;;1.20;99.90;;;;;;4985398;28;20228;-82
2021/12/22 10:42:59;;;;;;;31.33;15.05;;;1.20;99.90;;;;;;4986016;28;20209;-82
2021/12/22 10:45:29;;;;;;;23.73;14.18;;;1.20;99.90;;;;;;4985632;28;20745;-83
2021/12/22 10:50:44;;;;;;;27.35;15.07;;;1.40;99.90;;;;;;4986060;28;20231;-83
2021/12/22 10:53:13;;;;;;;23.55;15.23;;;1.50;99.90;;;;;;4985686;28;20304;-83
2021/12/22 10:55:42;;;;;;;23.10;13.45;;;1.50;99.90;;;;;;4985130;28;20215;-82
2021/12/22 10:58:21;;;;;;;24.95;14.88;;;1.40;99.90;;;;;;4988638;28;20566;-83
2021/12/22 11:01:06;;;;;;;25.15;14.25;;;1.40;99.90;;;;;;4984896;28;20326;-82
2021/12/22 11:03:41;;;;;;;33.25;15.35;;;1.50;99.90;;;;;;4985113;28;20193;-83
2021/12/22 11:06:17;;;;;;;24.35;13.13;;;1.40;99.90;;;;;;4985437;28;20325;-83
2021/12/22 11:08:54;;;;;;;22.40;14.55;;;1.50;99.90;;;;;;4985145;28;20298;-83
2021/12/22 11:11:38;;;;;;;24.80;14.70;;;1.50;99.90;;;;;;5008198;22;20697;-88
2021/12/22 11:14:17;;;;;;;27.02;16.15;;;1.50;99.90;;;;;;4984993;28;20194;-89
2021/12/22 11:17:28;;;;;;;21.10;14.40;;;1.30;99.90;;;;;;4986835;28;20214;-88
2021/12/22 11:20:06;;;;;;;24.75;14.40;;;1.30;99.90;;;;;;4983955;28;20228;-87
2021/12/22 11:22:59;;;;;;;22.13;14.05;;;1.40;99.90;;;;;;4986177;28;20194;-87
2021/12/22 11:25:30;;;;;;;21.55;13.60;;;1.60;99.90;;;;;;4990228;28;20222;-89
2021/12/22 11:28:03;;;;;;;29.60;15.90;;;1.70;99.90;;;;;;4993161;28;20220;-88
2021/12/22 11:30:40;;;;;;;29.73;14.70;;;1.50;99.90;;;;;;4985832;28;20376;-88
2021/12/22 11:33:12;;;;;;;43.63;21.00;;;1.80;99.90;;;;;;4986138;28;20569;-88
2021/12/22 11:35:42;;;;;;;21.75;14.68;;;1.90;99.90;;;;;;4984921;28;20236;-89
2021/12/22 11:38:20;;;;;;;20.60;13.45;;;1.90;99.90;;;;;;4983482;28;20209;-89
2021/12/22 11:40:53;;;;;;;26.65;15.20;;;1.60;99.90;;;;;;4985483;28;20220;-89
2021/12/22 11:43:24;;;;;;;23.58;15.23;;;1.90;99.90;;;;;;4983825;28;20205;-88
2021/12/22 11:46:12;;;;;;;23.40;13.82;;;2.10;99.90;;;;;;4983393;28;20224;-88
2021/12/22 11:48:55;;;;;;;24.98;15.55;;;2.10;99.90;;;;;;4982728;28;20216;-89
2021/12/22 11:51:28;;;;;;;23.08;15.00;;;2.30;99.90;;;;;;4991291;28;20276;-89
2021/12/22 11:54:05;;;;;;;21.50;13.43;;;2.10;99.90;;;;;;4993273;28;20189;-89
2021/12/22 11:56:46;;;;;;;24.63;15.43;;;1.80;99.90;;;;;;4983985;28;20209;-88
2021/12/22 11:59:33;;;;;;;20.73;13.43;;;2.20;99.90;;;;;;4983971;28;20217;-88
2021/12/22 12:02:38;;;;;;;24.90;14.82;;;1.70;99.90;;;;;;4982940;28;20189;-89
2021/12/22 12:08:28;;;;;;;23.42;14.70;;;2.20;99.90;;;;;;4985674;28;20197;-89
2021/12/22 12:11:45;;;;;;;22.15;13.80;;;2.30;99.90;;;;;;4993066;28;20697;-88
2021/12/22 12:15:06;;;;;;;22.05;14.10;;;2.50;99.90;;;;;;4993405;28;20224;-89
2021/12/22 12:23:32;;;;;;;24.67;14.48;;;2.50;99.90;;;;;;4993502;28;20212;-88
2021/12/22 12:26:04;;;;;;;24.60;15.38;;;2.70;99.90;;;;;;4991151;28;20216;-88
2021/12/22 12:29:23;;;;;;;19.42;13.30;;;2.20;99.90;;;;;;4992206;28;20197;-88
2021/12/22 12:32:15;;;;;;;25.27;15.55;;;2.70;99.90;;;;;;4936082;29;20234;-88
2021/12/22 12:39:14;;;;;;;26.85;15.32;;;2.60;99.90;;;;;;4936434;29;20190;-88
2021/12/22 12:52:51;;;;;;;26.52;14.40;;;2.70;99.90;;;;;;4756890;30;20261;-87
2021/12/22 12:56:27;;;;;;;22.00;14.25;;;2.60;99.90;;;;;;4750138;30;20200;-89
2021/12/22 13:52:26;;;;;;;25.83;15.73;;;3.00;99.90;;;;;;4992103;28;20627;-87
2021/12/22 13:55:29;;;;;;;26.52;15.85;;;2.90;99.90;;;;;;4908932;29;20214;-90
2021/12/22 13:58:35;;;;;;;23.58;14.85;;;2.60;99.90;;;;;;4940054;28;20212;-88
2021/12/22 14:06:07;;;;;;;;;;;;;;;;;;;;;
2021/12/22 14:42:58;;;;;;;25.65;16.50;;;2.90;99.90;;;;;;4887293;29;20199;-89
2021/12/22 14:45:40;;;;;;;27.13;16.75;;;2.80;99.90;;;;;;4913629;29;20244;-88
2021/12/22 14:51:55;;;;;;;24.98;16.05;;;2.90;99.90;;;;;;5002084;28;20259;-89
2021/12/22 14:57:50;;;;;;;28.60;17.35;;;2.70;99.90;;;;;;5009643;28;20271;-88
2021/12/22 15:00:59;;;;;;;28.25;17.63;;;2.70;99.90;;;;;;5010806;28;20228;-89
2021/12/22 15:07:33;;;;;;;;;;;;;;;;;;;;;
2021/12/22 15:10:44;;;;;;;26.85;14.43;;;2.60;99.90;;;;;;4939563;28;20277;-89
2021/12/22 15:13:40;;;;;;;28.52;16.65;;;2.60;99.90;;;;;;5015641;28;20219;-89
2021/12/22 15:41:57;;;;;;;;;;;;;;;;;;;;;
2021/12/22 16:15:34;;;;;;;31.08;19.30;;;2.00;99.90;;;;;;4900308;29;20701;-89
2021/12/22 16:24:04;;;;;;;35.70;18.55;;;2.10;99.90;;;;;;4935231;29;20339;-89
2021/12/22 16:33:28;;;;;;;35.70;19.05;;;2.00;99.90;;;;;;5005559;28;20211;-89
2021/12/22 16:46:55;;;;;;;31.88;19.40;;;1.20;99.90;;;;;;5010344;28;20255;-88
2021/12/22 16:50:07;;;;;;;33.83;18.88;;;1.60;99.90;;;;;;5009457;28;20215;-87
2021/12/22 17:12:06;;;;;;;38.75;22.23;;;1.20;99.90;;;;;;5018901;23;20657;-82
2021/12/22 17:14:32;;;;;;;35.58;22.05;;;1.20;99.90;;;;;;5007403;28;20225;-82
2021/12/22 17:17:06;;;;;;;30.83;18.80;;;1.10;99.90;;;;;;5013247;28;20230;-83
2021/12/22 17:19:33;;;;;;;36.47;20.80;;;1.30;99.90;;;;;;5005989;28;20185;-82
2021/12/22 17:22:01;;;;;;;32.33;20.30;;;1.10;99.90;;;;;;5005093;28;20666;-83
2021/12/22 17:24:28;;;;;;;33.15;20.38;;;1.00;99.90;;;;;;5003290;28;20359;-83
2021/12/22 17:26:55;;;;;;;35.58;21.15;;;1.10;99.90;;;;;;5002563;28;20340;-84
2021/12/22 17:29:22;;;;;;;38.65;22.52;;;1.20;99.90;;;;;;5002270;28;20200;-83
2021/12/22 17:31:49;;;;;;;39.03;22.85;;;1.10;99.90;;;;;;5002452;28;20288;-84
2021/12/22 17:34:16;;;;;;;34.80;21.65;;;0.90;99.90;;;;;;5002741;28;20220;-84
2021/12/22 17:36:45;;;;;;;36.60;21.02;;;1.10;99.90;;;;;;5002427;28;20214;-83
2021/12/22 17:39:13;;;;;;;35.55;21.42;;;0.90;99.90;;;;;;5003359;28;20295;-83
2021/12/22 17:41:40;;;;;;;38.80;22.38;;;1.10;99.90;;;;;;5002514;28;20616;-83
2021/12/22 17:44:07;;;;;;;37.63;20.73;;;1.10;99.90;;;;;;5002159;28;20212;-83
2021/12/22 17:46:34;;;;;;;39.28;22.05;;;1.10;99.90;;;;;;5002885;28;20239;-83
2021/12/22 17:49:01;;;;;;;37.42;22.10;;;1.20;99.90;;;;;;5002256;28;20278;-83
2021/12/22 17:51:28;;;;;;;41.10;22.52;;;1.10;99.90;;;;;;5003904;28;20262;-83
2021/12/22 17:53:55;;;;;;;37.45;22.83;;;1.10;99.90;;;;;;5002701;28;20295;-83
2021/12/22 17:56:23;;;;;;;38.60;22.98;;;1.00;99.90;;;;;;5001422;28;20309;-83
2021/12/22 17:58:50;;;;;;;38.17;21.67;;;0.90;99.90;;;;;;5002185;28;20208;-83
2021/12/22 18:01:18;;;;;;;37.55;22.60;;;0.80;99.90;;;;;;5001467;28;20237;-83
2021/12/22 18:03:45;;;;;;;41.47;25.20;;;0.90;99.90;;;;;;5002500;28;20288;-83
2021/12/22 18:06:19;;;;;;;39.90;22.38;;;0.70;99.90;;;;;;5001769;28;20223;-84
2021/12/22 18:08:46;;;;;;;38.95;23.92;;;0.80;99.90;;;;;;5002123;28;20195;-84
2021/12/22 18:11:14;;;;;;;45.55;24.20;;;0.80;99.90;;;;;;5002438;28;20240;-83
2021/12/22 18:13:43;;;;;;;37.15;22.00;;;0.90;99.90;;;;;;5002824;28;20664;-83
2021/12/22 18:16:10;;;;;;;40.75;21.52;;;1.00;99.90;;;;;;5002548;28;20224;-82
2021/12/22 18:18:38;;;;;;;40.17;21.55;;;0.80;99.90;;;;;;5002539;28;20216;-84
2021/12/22 18:21:05;;;;;;;35.53;19.65;;;0.80;99.90;;;;;;5002999;28;20236;-84
2021/12/22 18:23:32;;;;;;;36.78;21.48;;;0.80;99.90;;;;;;5003642;28;20679;-85
2021/12/22 18:25:59;;;;;;;34.00;20.05;;;1.00;99.90;;;;;;5005324;28;20227;-83
2021/12/22 18:28:26;;;;;;;47.40;25.00;;;0.90;99.90;;;;;;5008467;28;20780;-83
2021/12/22 18:30:54;;;;;;;35.92;21.13;;;0.80;99.90;;;;;;5008592;28;20264;-83
2021/12/22 18:33:21;;;;;;;37.95;20.98;;;0.80;99.90;;;;;;5008007;28;20251;-83
2021/12/22 18:35:51;;;;;;;34.70;20.73;;;0.80;99.90;;;;;;5007370;28;20215;-84
2021/12/22 18:38:22;;;;;;;40.22;21.52;;;0.70;99.90;;;;;;5005741;28;20295;-82
2021/12/22 18:40:51;;;;;;;35.28;21.30;;;1.00;99.90;;;;;;5005225;28;20256;-83
2021/12/22 18:43:20;;;;;;;37.35;19.35;;;0.60;99.90;;;;;;5005818;28;20212;-82
2021/12/22 18:45:49;;;;;;;35.28;20.05;;;0.80;99.90;;;;;;5010595;28;20255;-82
2021/12/22 18:48:19;;;;;;;36.22;21.40;;;0.80;99.90;;;;;;5005978;28;20230;-84
2021/12/22 18:50:47;;;;;;;32.03;19.55;;;0.70;99.90;;;;;;5005598;28;20224;-83
2021/12/22 18:53:14;;;;;;;38.63;22.33;;;0.70;99.90;;;;;;5005945;28;20213;-84
2021/12/22 18:55:41;;;;;;;36.60;20.02;;;0.90;99.90;;;;;;5004748;28;20209;-83
2021/12/22 18:58:09;;;;;;;34.58;21.33;;;0.60;99.90;;;;;;5006186;28;20275;-83
2021/12/22 19:00:39;;;;;;;31.90;19.75;;;0.60;99.90;;;;;;5004883;28;20395;-84
2021/12/22 19:03:07;;;;;;;39.83;22.17;;;0.80;99.90;;;;;;5004820;28;20193;-84
2021/12/22 19:05:36;;;;;;;35.53;21.60;;;0.70;99.90;;;;;;5004185;28;20244;-83
2021/12/22 19:08:05;;;;;;;37.63;22.30;;;0.70;99.90;;;;;;5004713;28;20211;-84
2021/12/22 19:10:32;;;;;;;35.13;20.33;;;0.70;99.90;;;;;;5013845;28;20257;-82
2021/12/22 19:12:59;;;;;;;36.58;23.02;;;0.80;99.90;;;;;;5009735;28;20210;-84
2021/12/22 19:15:27;;;;;;;38.13;22.08;;;0.60;99.90;;;;;;5004551;28;20251;-84
2021/12/22 19:17:55;;;;;;;40.00;23.02;;;0.80;99.90;;;;;;5004506;28;20215;-83
2021/12/22 19:20:22;;;;;;;43.28;25.48;;;0.80;99.90;;;;;;5004663;28;20223;-84
2021/12/22 19:22:50;;;;;;;44.20;24.95;;;0.70;99.90;;;;;;5004309;28;20584;-83
2021/12/22 19:25:18;;;;;;;38.42;21.65;;;0.60;99.90;;;;;;5003856;28;20830;-82
2021/12/22 19:27:44;;;;;;;42.90;23.52;;;0.50;99.90;;;;;;5003171;28;20216;-83
2021/12/22 19:30:18;;;;;;;39.80;22.40;;;0.50;99.90;;;;;;5004193;28;20228;-84
2021/12/22 19:32:45;;;;;;;39.13;22.63;;;0.70;99.90;;;;;;5003512;28;20200;-84
2021/12/22 19:35:13;;;;;;;44.05;22.23;;;0.60;99.90;;;;;;5003407;28;20208;-85
2021/12/22 19:37:41;;;;;;;36.42;21.35;;;0.80;99.90;;;;;;5003713;28;20291;-84
2021/12/22 19:40:12;;;;;;;36.33;22.73;;;0.70;99.90;;;;;;5003616;28;20235;-84
2021/12/22 19:42:39;;;;;;;34.75;22.10;;;0.60;99.90;;;;;;5003531;28;20605;-84
2021/12/22 19:45:08;;;;;;;42.97;23.23;;;0.50;99.90;;;;;;5004267;28;20218;-84
2021/12/22 19:47:35;;;;;;;37.65;21.08;;;0.40;99.90;;;;;;5003317;28;20311;-83
2021/12/22 19:50:03;;;;;;;40.45;22.15;;;0.50;99.90;;;;;;5003267;28;20221;-84
2021/12/22 19:52:30;;;;;;;35.75;21.75;;;0.30;99.90;;;;;;5003301;28;20210;-84
2021/12/22 19:54:57;;;;;;;37.08;20.20;;;0.50;99.90;;;;;;5003954;28;20272;-84
2021/12/22 19:57:25;;;;;;;37.15;20.50;;;0.50;99.90;;;;;;5005290;28;20254;-83
2021/12/22 19:59:52;;;;;;;40.40;22.52;;;0.30;99.90;;;;;;5006638;28;20263;-82
2021/12/22 20:02:19;;;;;;;35.20;21.00;;;0.40;99.90;;;;;;5004797;28;20303;-84
2021/12/22 20:04:46;;;;;;;36.80;21.45;;;0.30;99.90;;;;;;5002920;28;20196;-84
2021/12/22 20:07:14;;;;;;;41.00;23.35;;;0.30;99.90;;;;;;5002867;28;20291;-84
2021/12/22 20:09:41;;;;;;;33.28;21.20;;;0.30;99.90;;;;;;5003726;28;20208;-84
2021/12/22 20:12:09;;;;;;;42.10;22.45;;;0.30;99.90;;;;;;5002706;28;20803;-84
2021/12/22 20:14:37;;;;;;;41.78;23.50;;;0.30;99.90;;;;;;5003377;28;20208;-84
2021/12/22 20:17:04;;;;;;;37.10;21.00;;;0.10;99.90;;;;;;5003364;28;20289;-84
2021/12/22 20:19:31;;;;;;;34.30;19.95;;;0.30;99.90;;;;;;5008264;28;20270;-84
2021/12/22 20:21:58;;;;;;;37.88;22.10;;;0.40;99.90;;;;;;5002711;28;20314;-85
2021/12/22 20:24:26;;;;;;;40.30;22.48;;;0.20;99.90;;;;;;5003953;28;20215;-83